createdAt,value
2019-03-06T00:01:00.479Z,3.57
2019-03-06T00:03:30.236Z,3.37
2019-03-06T00:05:59.982Z,3.63
2019-03-06T00:08:29.758Z,3.43
2019-03-06T00:10:59.542Z,3.70
2019-03-06T00:13:28.799Z,3.60
2019-03-06T00:15:58.481Z,3.67
2019-03-06T00:18:27.752Z,3.57
2019-03-06T00:20:57.273Z,3.23
2019-03-06T00:23:27.034Z,3.10
2019-03-06T00:25:56.805Z,3.73
2019-03-06T00:28:26.002Z,3.57
2019-03-06T00:30:55.657Z,3.37
2019-03-06T00:33:25.374Z,4.37
2019-03-06T00:35:55.585Z,3.67
2019-03-06T00:38:25.449Z,3.40
2019-03-06T00:41:09.119Z,3.40
2019-03-06T00:43:38.797Z,3.37
2019-03-06T00:46:08.503Z,3.20
2019-03-06T00:48:38.206Z,3.17
2019-03-06T00:51:08.887Z,3.23
2019-03-06T00:53:38.151Z,3.87
2019-03-06T00:56:07.819Z,3.77
2019-03-06T00:58:37.537Z,3.60
2019-03-06T01:01:07.258Z,3.07
2019-03-06T01:03:36.477Z,3.40
2019-03-06T01:06:06.512Z,3.23
2019-03-06T01:08:35.823Z,2.90
2019-03-06T01:11:05.803Z,2.97
2019-03-06T01:13:35.732Z,3.00
2019-03-06T01:16:05.467Z,2.73
2019-03-06T01:18:34.728Z,3.00
2019-03-06T01:21:05.542Z,3.03
2019-03-06T01:23:35.416Z,2.83
2019-03-06T01:26:04.878Z,3.20
2019-03-06T01:28:34.122Z,2.80
2019-03-06T01:31:04.282Z,2.80
2019-03-06T01:33:45.875Z,3.07
2019-03-06T01:36:25.078Z,2.83
2019-03-06T01:39:01.818Z,2.57
2019-03-06T01:41:50.259Z,2.67
2019-03-06T01:44:27.081Z,2.87
2019-03-06T01:46:56.746Z,3.10
2019-03-06T01:49:26.001Z,3.00
2019-03-06T01:51:55.593Z,2.87
2019-03-06T01:54:25.323Z,3.20
2019-03-06T01:56:54.998Z,2.90
2019-03-06T01:59:24.255Z,2.67
2019-03-06T02:01:53.944Z,2.90
2019-03-06T02:04:23.630Z,3.60
2019-03-06T02:06:53.490Z,3.33
2019-03-06T02:09:26.241Z,3.00
2019-03-06T02:11:58.874Z,3.07
2019-03-06T02:14:28.629Z,3.10
2019-03-06T02:16:58.375Z,3.70
2019-03-06T02:19:28.110Z,3.60
2019-03-06T02:21:57.931Z,3.83
2019-03-06T02:24:27.586Z,3.83
2019-03-06T02:26:57.474Z,3.50
2019-03-06T02:29:27.126Z,3.90
2019-03-06T02:31:56.365Z,4.17
2019-03-06T02:34:25.943Z,3.93
2019-03-06T02:36:55.612Z,4.30
2019-03-06T02:39:25.301Z,4.43
2019-03-06T02:41:54.948Z,4.53
2019-03-06T02:44:24.642Z,5.30
2019-03-06T02:46:53.906Z,4.87
2019-03-06T02:49:23.673Z,4.63
2019-03-06T02:51:53.490Z,4.67
2019-03-06T02:54:23.355Z,5.00
2019-03-06T02:56:52.990Z,5.10
2019-03-06T02:59:27.266Z,5.27
2019-03-06T03:02:01.232Z,6.13
2019-03-06T03:04:35.157Z,5.57
2019-03-06T03:07:07.675Z,5.70
2019-03-06T03:09:37.583Z,6.27
2019-03-06T03:12:07.370Z,5.90
2019-03-06T03:14:37.037Z,6.20
2019-03-06T03:17:06.853Z,6.30
2019-03-06T03:19:36.505Z,6.27
2019-03-06T03:22:06.599Z,6.20
2019-03-06T03:24:35.847Z,6.70
2019-03-06T03:27:05.656Z,6.13
2019-03-06T03:29:35.445Z,6.67
2019-03-06T03:32:05.178Z,6.37
2019-03-06T03:34:35.181Z,5.80
2019-03-06T03:37:04.425Z,6.10
2019-03-06T03:39:34.061Z,6.40
2019-03-06T03:42:03.953Z,7.37
2019-03-06T03:44:33.723Z,6.97
2019-03-06T03:47:03.257Z,6.50
2019-03-06T03:49:32.815Z,6.03
2019-03-06T03:52:02.548Z,6.67
2019-03-06T03:54:31.859Z,6.33
2019-03-06T03:57:02.246Z,5.93
2019-03-06T03:59:32.058Z,6.63
2019-03-06T04:02:01.718Z,6.30
2019-03-06T04:04:31.593Z,5.93
2019-03-06T04:07:01.296Z,6.70
2019-03-06T04:09:30.960Z,6.50
2019-03-06T04:12:01.085Z,6.83
2019-03-06T04:14:31.838Z,6.80
2019-03-06T04:17:01.220Z,6.83
2019-03-06T04:19:30.820Z,7.27
2019-03-06T04:22:00.570Z,7.03
2019-03-06T04:24:29.951Z,8.03
2019-03-06T04:27:00.052Z,7.70
2019-03-06T04:29:29.611Z,7.53
2019-03-06T04:31:59.232Z,7.53
2019-03-06T04:34:28.691Z,8.47
2019-03-06T04:36:58.286Z,8.23
2019-03-06T04:39:27.967Z,8.73
2019-03-06T04:41:57.816Z,8.80
2019-03-06T04:44:27.451Z,8.93
2019-03-06T04:46:57.110Z,9.07
2019-03-06T04:49:26.807Z,8.73
2019-03-06T04:51:56.539Z,9.67
2019-03-06T04:54:25.769Z,9.67
2019-03-06T04:56:55.421Z,9.93
2019-03-06T04:59:25.180Z,10.43
2019-03-06T05:01:54.433Z,9.93
2019-03-06T05:04:23.985Z,10.47
2019-03-06T05:06:53.715Z,10.27
2019-03-06T05:09:23.366Z,11.00
2019-03-06T05:11:53.127Z,11.37
2019-03-06T05:14:22.855Z,12.17
2019-03-06T05:17:11.880Z,11.47
2019-03-06T05:19:41.957Z,12.03
2019-03-06T05:22:11.304Z,11.60
2019-03-06T05:24:40.964Z,12.57
2019-03-06T05:27:10.165Z,11.37
2019-03-06T05:29:39.807Z,12.30
2019-03-06T05:32:28.276Z,12.23
2019-03-06T05:34:59.693Z,10.93
2019-03-06T05:38:02.615Z,11.67
2019-03-06T05:40:32.350Z,11.60
2019-03-06T05:43:01.564Z,11.10
2019-03-06T05:45:30.711Z,11.60
2019-03-06T05:48:00.343Z,11.70
2019-03-06T05:50:29.979Z,11.63
2019-03-06T05:52:59.677Z,10.80
2019-03-06T05:55:29.320Z,11.00
2019-03-06T05:57:59.106Z,11.67
2019-03-06T06:00:28.793Z,11.30
2019-03-06T06:02:58.675Z,12.17
2019-03-06T06:05:28.559Z,12.00
2019-03-06T06:07:58.369Z,11.60
2019-03-06T06:10:28.095Z,11.90
2019-03-06T06:12:57.355Z,11.30
2019-03-06T06:15:26.472Z,10.37
2019-03-06T06:17:57.128Z,10.73
2019-03-06T06:20:26.517Z,9.43
2019-03-06T06:23:16.939Z,10.10
2019-03-06T06:25:46.136Z,9.63
2019-03-06T06:28:15.818Z,9.50
2019-03-06T06:30:45.006Z,9.50
2019-03-06T06:33:14.762Z,10.00
2019-03-06T06:35:44.051Z,9.93
2019-03-06T06:38:14.403Z,9.73
2019-03-06T06:40:43.636Z,10.00
2019-03-06T06:43:12.910Z,9.83
2019-03-06T06:45:42.216Z,9.83
2019-03-06T06:48:16.709Z,10.37
2019-03-06T06:51:01.265Z,10.17
2019-03-06T06:53:28.751Z,9.70
2019-03-06T06:56:29.694Z,10.00
2019-03-06T06:59:07.678Z,9.80
2019-03-06T07:02:00.143Z,9.70
2019-03-06T07:04:55.371Z,10.13
2019-03-06T07:07:32.331Z,10.63
2019-03-06T07:10:13.086Z,10.40
2019-03-06T07:12:51.479Z,10.93
2019-03-06T07:15:48.388Z,10.90
2019-03-06T07:18:26.228Z,10.57
2019-03-06T07:21:01.961Z,12.60
2019-03-06T07:23:47.043Z,13.13
2019-03-06T07:26:34.449Z,13.10
2019-03-06T07:29:29.188Z,14.20
2019-03-06T07:32:15.278Z,14.30
2019-03-06T07:35:22.872Z,12.63
2019-03-06T07:38:03.625Z,12.43
2019-03-06T07:40:52.045Z,11.30
2019-03-06T07:43:31.714Z,11.60
2019-03-06T07:46:12.674Z,11.17
2019-03-06T07:48:50.464Z,11.50
2019-03-06T07:51:27.123Z,11.40
2019-03-06T07:54:12.669Z,11.67
2019-03-06T07:56:45.073Z,11.63
2019-03-06T07:59:14.285Z,11.30
2019-03-06T08:01:47.908Z,12.37
2019-03-06T08:04:17.347Z,11.37
2019-03-06T08:06:50.132Z,12.13
2019-03-06T08:09:19.691Z,12.00
2019-03-06T08:12:06.837Z,11.40
2019-03-06T08:14:48.342Z,12.40
2019-03-06T08:17:45.508Z,12.53
2019-03-06T08:20:33.874Z,12.67
2019-03-06T08:23:21.038Z,12.47
2019-03-06T08:25:51.338Z,16.13
2019-03-06T08:28:20.615Z,13.67
2019-03-06T08:30:56.758Z,13.33
2019-03-06T08:33:26.154Z,12.00
2019-03-06T08:35:55.447Z,13.37
2019-03-06T08:38:24.701Z,12.47
2019-03-06T08:41:03.412Z,12.67
2019-03-06T08:43:24.726Z,13.73
2019-03-06T08:46:42.728Z,14.17
2019-03-06T08:49:41.149Z,13.23
2019-03-06T08:52:24.516Z,13.03
2019-03-06T08:55:31.571Z,13.67
2019-03-06T08:58:22.759Z,13.20
2019-03-06T09:01:12.548Z,12.93
2019-03-06T09:04:19.111Z,13.47
2019-03-06T09:06:59.559Z,13.37
2019-03-06T09:09:39.912Z,13.33
2019-03-06T09:12:32.497Z,13.23
2019-03-06T09:15:27.307Z,12.63
2019-03-06T09:18:13.247Z,13.80
2019-03-06T09:20:52.578Z,14.10
2019-03-06T09:23:43.995Z,14.17
2019-03-06T09:26:32.049Z,13.30
2019-03-06T09:29:08.371Z,13.53
2019-03-06T09:31:48.765Z,14.07
2019-03-06T09:34:30.633Z,12.77
2019-03-06T09:37:16.981Z,13.47
2019-03-06T09:39:54.725Z,14.20
2019-03-06T09:42:38.608Z,13.57
2019-03-06T09:45:19.479Z,13.50
2019-03-06T09:47:59.525Z,14.33
2019-03-06T09:50:34.434Z,12.80
2019-03-06T09:53:15.069Z,13.57
2019-03-06T09:55:59.724Z,15.13
2019-03-06T09:58:48.152Z,15.07
2019-03-06T10:01:24.707Z,14.40
2019-03-06T10:04:04.889Z,14.20
2019-03-06T10:06:52.401Z,13.83
2019-03-06T10:09:31.562Z,14.40
2019-03-06T10:12:12.804Z,14.33
2019-03-06T10:15:04.919Z,14.23
2019-03-06T10:17:43.756Z,14.20
2019-03-06T10:20:24.838Z,14.33
2019-03-06T10:22:48.866Z,13.73
2019-03-06T10:25:18.193Z,13.90
2019-03-06T10:27:48.300Z,14.73
2019-03-06T10:30:18.719Z,13.93
2019-03-06T10:32:48.401Z,13.40
2019-03-06T10:35:17.747Z,13.67
2019-03-06T10:37:47.458Z,13.80
2019-03-06T10:40:17.067Z,13.43
2019-03-06T10:42:47.504Z,14.27
2019-03-06T10:45:17.129Z,13.97
2019-03-06T10:47:47.918Z,14.50
2019-03-06T10:50:26.291Z,14.47
2019-03-06T10:52:50.244Z,14.37
2019-03-06T10:55:19.696Z,14.37
2019-03-06T10:57:49.150Z,14.30
2019-03-06T11:00:20.547Z,14.17
2019-03-06T11:02:50.239Z,14.43
2019-03-06T11:05:32.318Z,13.40
2019-03-06T11:08:02.170Z,13.57
2019-03-06T11:10:32.545Z,12.67
2019-03-06T11:13:03.630Z,14.13
2019-03-06T11:15:33.342Z,13.37
2019-03-06T11:18:02.725Z,14.03
2019-03-06T11:20:32.569Z,13.37
2019-03-06T11:23:02.270Z,12.83
2019-03-06T11:25:32.524Z,13.27
2019-03-06T11:28:02.184Z,13.50
2019-03-06T11:30:33.291Z,12.87
2019-03-06T11:33:02.608Z,13.37
2019-03-06T11:35:34.097Z,12.97
2019-03-06T11:38:03.396Z,12.40
2019-03-06T11:40:33.541Z,13.13
2019-03-06T11:43:02.722Z,13.17
2019-03-06T11:45:32.591Z,11.93
2019-03-06T11:48:03.619Z,11.83
2019-03-06T11:50:40.620Z,11.90
2019-03-06T11:53:04.368Z,10.73
2019-03-06T11:55:33.806Z,11.13
2019-03-06T11:58:03.164Z,10.23
2019-03-06T12:00:39.496Z,10.77
2019-03-06T12:03:09.241Z,10.53
2019-03-06T12:05:38.556Z,10.47
2019-03-06T12:08:09.853Z,11.60
2019-03-06T12:10:39.231Z,10.57
2019-03-06T12:13:09.595Z,10.23
2019-03-06T12:15:38.963Z,9.97
2019-03-06T12:18:08.235Z,10.20
2019-03-06T12:20:38.534Z,10.47
2019-03-06T12:23:08.011Z,10.67
2019-03-06T12:25:37.684Z,11.10
2019-03-06T12:28:08.213Z,9.80
2019-03-06T12:30:39.470Z,10.73
2019-03-06T12:33:08.963Z,9.70
2019-03-06T12:35:38.466Z,10.03
2019-03-06T12:38:07.782Z,9.93
2019-03-06T12:40:38.050Z,9.27
2019-03-06T12:43:09.854Z,9.63
2019-03-06T12:45:39.219Z,8.47
2019-03-06T12:48:09.206Z,9.30
2019-03-06T12:50:38.512Z,8.80
2019-03-06T12:53:07.738Z,8.80
2019-03-06T12:55:37.027Z,9.07
2019-03-06T12:58:06.240Z,9.10
2019-03-06T13:00:35.756Z,10.60
2019-03-06T13:03:04.971Z,9.80
2019-03-06T13:05:34.324Z,9.10
2019-03-06T13:08:03.657Z,9.17
2019-03-06T13:10:32.883Z,9.73
2019-03-06T13:13:02.617Z,10.97
2019-03-06T13:15:32.255Z,9.87
2019-03-06T13:18:01.541Z,10.60
2019-03-06T13:20:30.844Z,9.53
2019-03-06T13:23:00.199Z,9.07
2019-03-06T13:25:29.458Z,9.20
2019-03-06T13:27:58.695Z,9.03
2019-03-06T13:30:29.815Z,9.20
2019-03-06T13:33:07.815Z,8.27
2019-03-06T13:35:37.232Z,9.17
2019-03-06T13:38:06.559Z,9.93
2019-03-06T13:40:35.799Z,9.27
2019-03-06T13:43:05.118Z,9.87
2019-03-06T13:45:34.429Z,9.00
2019-03-06T13:48:03.720Z,9.13
2019-03-06T13:50:32.994Z,8.93
2019-03-06T13:53:02.254Z,8.00
2019-03-06T13:55:31.594Z,8.03
2019-03-06T13:58:01.018Z,8.73
2019-03-06T14:00:30.336Z,8.97
2019-03-06T14:03:01.749Z,8.70
2019-03-06T14:05:31.058Z,9.03
2019-03-06T14:08:01.547Z,9.43
2019-03-06T14:10:30.786Z,10.27
2019-03-06T14:12:59.990Z,9.23
2019-03-06T14:15:29.324Z,10.23
2019-03-06T14:17:58.574Z,8.20
2019-03-06T14:20:27.920Z,8.10
2019-03-06T14:22:57.438Z,7.73
2019-03-06T14:25:26.988Z,7.73
2019-03-06T14:27:56.262Z,8.10
2019-03-06T14:30:25.609Z,8.07
2019-03-06T14:32:54.848Z,7.80
2019-03-06T14:35:24.854Z,6.70
2019-03-06T14:37:54.140Z,7.40
2019-03-06T14:40:26.618Z,7.13
2019-03-06T14:42:56.274Z,7.00
2019-03-06T14:45:25.564Z,6.90
2019-03-06T14:47:54.870Z,7.03
2019-03-06T14:50:24.187Z,7.33
2019-03-06T14:52:53.493Z,7.57
2019-03-06T14:55:22.759Z,7.33
2019-03-06T14:57:51.964Z,7.77
2019-03-06T15:00:21.569Z,7.53
2019-03-06T15:02:51.077Z,7.00
2019-03-06T15:05:20.667Z,8.30
2019-03-06T15:07:50.013Z,8.30
2019-03-06T15:10:19.290Z,7.87
2019-03-06T15:12:48.608Z,7.10
2019-03-06T15:15:18.096Z,7.37
2019-03-06T15:17:47.546Z,6.90
2019-03-06T15:20:17.490Z,7.63
2019-03-06T15:22:47.566Z,7.40
2019-03-06T15:25:18.095Z,7.40
2019-03-06T15:27:47.374Z,7.97
2019-03-06T15:30:17.575Z,7.87
2019-03-06T15:32:47.230Z,7.23
2019-03-06T15:35:16.693Z,7.53
2019-03-06T15:37:46.113Z,7.17
2019-03-06T15:40:17.135Z,7.43
2019-03-06T15:42:46.430Z,7.57
2019-03-06T15:45:16.547Z,7.77
2019-03-06T15:47:46.079Z,7.33
2019-03-06T15:50:15.642Z,7.30
2019-03-06T15:52:44.940Z,7.23
2019-03-06T15:55:14.318Z,8.00
2019-03-06T15:57:43.618Z,7.80
2019-03-06T16:00:33.638Z,8.00
2019-03-06T16:03:03.754Z,8.07
2019-03-06T16:05:33.349Z,7.00
2019-03-06T16:08:02.657Z,7.70
2019-03-06T16:10:31.923Z,7.47
2019-03-06T16:13:01.255Z,7.50
2019-03-06T16:15:31.549Z,7.03
2019-03-06T16:18:01.494Z,7.33
2019-03-06T16:20:30.755Z,7.20
2019-03-06T16:23:01.134Z,7.47
2019-03-06T16:25:36.905Z,7.33
2019-03-06T16:28:01.252Z,7.33
2019-03-06T16:30:31.551Z,7.67
2019-03-06T16:33:00.980Z,7.20
2019-03-06T16:35:30.672Z,8.27
2019-03-06T16:37:59.867Z,7.23
2019-03-06T16:40:30.804Z,7.70
2019-03-06T16:43:00.021Z,7.20
2019-03-06T16:45:29.820Z,7.13
2019-03-06T16:48:00.271Z,7.83
2019-03-06T16:50:29.633Z,7.70
2019-03-06T16:52:58.931Z,7.07
2019-03-06T16:55:28.331Z,7.33
2019-03-06T16:57:57.953Z,7.57
2019-03-06T17:00:28.281Z,7.53
2019-03-06T17:02:57.728Z,6.47
2019-03-06T17:05:48.665Z,7.60
2019-03-06T17:08:25.919Z,7.17
2019-03-06T17:10:52.080Z,7.13
2019-03-06T17:13:22.319Z,7.07
2019-03-06T17:15:51.786Z,6.87
2019-03-06T17:18:22.787Z,6.50
2019-03-06T17:20:52.121Z,6.60
2019-03-06T17:23:21.355Z,6.43
2019-03-06T17:25:50.690Z,6.60
2019-03-06T17:28:20.198Z,6.30
2019-03-06T17:30:49.749Z,6.03
2019-03-06T17:33:19.120Z,6.80
2019-03-06T17:35:48.448Z,6.70
2019-03-06T17:38:19.474Z,6.27
2019-03-06T17:40:49.751Z,6.20
2019-03-06T17:43:19.138Z,6.33
2019-03-06T17:45:48.391Z,6.30
2019-03-06T17:48:17.688Z,6.07
2019-03-06T17:50:46.977Z,6.57
2019-03-06T17:53:16.215Z,6.10
2019-03-06T17:55:45.633Z,5.70
2019-03-06T17:58:15.053Z,6.13
2019-03-06T18:00:50.382Z,6.00
2019-03-06T18:03:24.841Z,6.23
2019-03-06T18:05:54.067Z,6.13
2019-03-06T18:08:23.384Z,5.93
2019-03-06T18:10:52.788Z,5.90
2019-03-06T18:13:22.114Z,5.93
2019-03-06T18:15:51.452Z,5.60
2019-03-06T18:18:20.728Z,6.27
2019-03-06T18:20:49.973Z,6.17
2019-03-06T18:23:19.220Z,6.50
2019-03-06T18:25:48.765Z,6.63
2019-03-06T18:28:17.992Z,6.00
2019-03-06T18:30:47.419Z,6.23
2019-03-06T18:33:16.647Z,6.63
2019-03-06T18:35:45.887Z,7.03
2019-03-06T18:38:15.072Z,7.30
2019-03-06T18:40:44.508Z,7.50
2019-03-06T18:43:13.751Z,7.67
2019-03-06T18:45:43.036Z,7.83
2019-03-06T18:48:12.736Z,8.00
2019-03-06T18:50:42.043Z,7.80
2019-03-06T18:53:11.305Z,8.13
2019-03-06T18:55:41.119Z,8.03
2019-03-06T18:58:10.569Z,8.30
2019-03-06T19:00:40.148Z,8.93
2019-03-06T19:03:10.281Z,8.33
2019-03-06T19:05:40.500Z,8.47
2019-03-06T19:08:09.859Z,8.10
2019-03-06T19:10:39.468Z,7.67
2019-03-06T19:13:08.931Z,8.27
2019-03-06T19:15:39.043Z,8.07
2019-03-06T19:18:08.342Z,8.60
2019-03-06T19:20:37.820Z,7.47
2019-03-06T19:23:07.118Z,8.13
2019-03-06T19:25:36.309Z,8.23
2019-03-06T19:28:06.962Z,8.23
2019-03-06T19:30:37.759Z,7.80
2019-03-06T19:33:07.226Z,8.30
2019-03-06T19:35:36.722Z,7.90
2019-03-06T19:38:06.269Z,8.33
2019-03-06T19:40:35.799Z,8.57
2019-03-06T19:43:05.062Z,8.57
2019-03-06T19:45:34.270Z,9.10
2019-03-06T19:48:03.524Z,9.23
2019-03-06T19:50:32.821Z,8.13
2019-03-06T19:53:02.130Z,9.17
2019-03-06T19:55:31.338Z,9.00
2019-03-06T19:58:01.832Z,8.87
2019-03-06T20:00:32.602Z,9.60
2019-03-06T20:03:02.000Z,8.83
2019-03-06T20:05:36.109Z,9.83
2019-03-06T20:08:07.653Z,9.67
2019-03-06T20:10:37.082Z,9.87
2019-03-06T20:13:06.549Z,10.00
2019-03-06T20:15:36.205Z,10.30
2019-03-06T20:18:06.571Z,10.33
2019-03-06T20:20:35.899Z,10.30
2019-03-06T20:23:05.276Z,9.90
2019-03-06T20:25:34.613Z,10.13
2019-03-06T20:28:04.003Z,9.77
2019-03-06T20:30:33.265Z,10.20
2019-03-06T20:33:02.462Z,10.47
2019-03-06T20:35:31.784Z,10.13
2019-03-06T20:38:01.208Z,10.47
2019-03-06T20:40:30.464Z,10.87
2019-03-06T20:42:59.932Z,10.23
2019-03-06T20:45:29.261Z,10.50
2019-03-06T20:47:58.578Z,10.10
2019-03-06T20:50:27.771Z,9.90
2019-03-06T20:52:58.072Z,10.90
2019-03-06T20:55:27.325Z,11.00
2019-03-06T20:57:56.928Z,10.53
2019-03-06T21:00:27.724Z,10.43
2019-03-06T21:02:57.032Z,10.57
2019-03-06T21:05:26.287Z,11.07
2019-03-06T21:07:55.530Z,10.40
2019-03-06T21:10:24.725Z,9.93
2019-03-06T21:12:54.051Z,10.53
2019-03-06T21:15:23.354Z,10.50
2019-03-06T21:17:52.580Z,10.67
2019-03-06T21:20:21.945Z,10.70
2019-03-06T21:22:51.431Z,10.40
2019-03-06T21:25:20.743Z,10.37
2019-03-06T21:27:50.158Z,10.73
2019-03-06T21:30:26.114Z,10.20
2019-03-06T21:32:55.405Z,10.40
2019-03-06T21:35:24.790Z,10.37
2019-03-06T21:37:54.102Z,10.60
2019-03-06T21:40:24.600Z,11.00
2019-03-06T21:42:53.930Z,10.77
2019-03-06T21:45:23.377Z,10.23
2019-03-06T21:47:52.845Z,10.60
2019-03-06T21:50:22.223Z,10.43
2019-03-06T21:52:51.478Z,10.83
2019-03-06T21:55:20.674Z,11.07
2019-03-06T21:57:50.167Z,10.40
2019-03-06T22:00:19.705Z,10.90
2019-03-06T22:02:48.959Z,10.77
2019-03-06T22:05:18.384Z,10.37
2019-03-06T22:07:50.205Z,10.70
2019-03-06T22:10:18.748Z,11.03
2019-03-06T22:12:48.091Z,11.67
2019-03-06T22:15:17.573Z,11.33
2019-03-06T22:17:46.854Z,10.77
2019-03-06T22:20:16.172Z,11.50
2019-03-06T22:22:45.648Z,11.10
2019-03-06T22:25:15.320Z,11.20
2019-03-06T22:27:44.637Z,10.60
2019-03-06T22:30:14.996Z,11.23
2019-03-06T22:32:44.303Z,11.13
2019-03-06T22:35:13.717Z,10.90
2019-03-06T22:37:42.979Z,10.93
2019-03-06T22:40:14.260Z,10.50
2019-03-06T22:42:43.547Z,10.47
2019-03-06T22:45:14.014Z,11.67
2019-03-06T22:47:43.265Z,10.63
2019-03-06T22:50:12.941Z,10.93
2019-03-06T22:52:42.244Z,10.67
2019-03-06T22:55:13.339Z,11.20
2019-03-06T22:57:42.508Z,10.30
2019-03-06T23:00:19.873Z,10.67
2019-03-06T23:02:50.939Z,10.60
2019-03-06T23:05:20.334Z,10.57
2019-03-06T23:07:50.647Z,10.47
2019-03-06T23:10:20.166Z,10.43
2019-03-06T23:12:49.363Z,10.67
2019-03-06T23:15:18.600Z,10.87
2019-03-06T23:17:47.938Z,11.40
2019-03-06T23:20:17.383Z,10.90
2019-03-06T23:22:46.731Z,11.27
2019-03-06T23:25:18.061Z,10.73
2019-03-06T23:27:46.951Z,10.20
2019-03-06T23:30:16.350Z,10.97
2019-03-06T23:32:45.617Z,11.37
2019-03-06T23:35:14.970Z,10.23
2019-03-06T23:37:44.222Z,10.93
2019-03-06T23:40:13.647Z,10.90
2019-03-06T23:42:43.021Z,11.37
2019-03-06T23:45:12.339Z,11.30
2019-03-06T23:47:41.875Z,11.20
2019-03-06T23:50:11.642Z,10.93
2019-03-06T23:53:15.139Z,10.97
2019-03-06T23:55:44.379Z,10.70
2019-03-06T23:58:13.554Z,10.70
